Terminal Aerodrome Forecast
Issued by NWS

Current Version | Previous Version | Text Only | Print | Product List | Glossary On
Versions: 1 2 3 4 5 6 7 8 9 10 11 12 13 14 15 16 17 18 19 20 21 22 23 24 25 26 27 28 29 30 31 32 33 34 35 36 37 38 39
000
FTAK31 PAFA 230540
TAFAFA
TAF
PAFA 230540Z 2306/2412 VRB03KT P6SM SCT040 BKN200
     FM231000 VRB03KT P6SM BKN070 OVC120
     FM231800 24005KT P6SM VCSH OVC035
     FM232000 29006KT 5SM -RA BR OVC025
     FM240200 30006KT P6SM VCSH SCT025 BKN050=

USA.gov is the U.S. government's official web portal to all federal, state and local government web resources and services.